Time;durP1;ratioP1;P1;durP2;ratioP2;P2;SDS_P1;SDS_P2;PMS_P1;PMS_P2;Temp;Humidity;BMP_temperature;BMP_pressure;BME280_temperature;BME280_humidity;BME280_pressure;Samples;Min_cycle;Max_cycle;Signal;HPM_P1;HPM_P2
2023/01/29 00:03:41;;;;;;;23.60;8.10;;;;;;;-0.99;100.00;100892.16;102887;1293;603631;-79
2023/01/29 00:09:56;;;;;;;23.00;7.90;;;;;;;-0.95;100.00;100885.15;103209;1286;599896;-77
2023/01/29 00:12:22;;;;;;;27.70;8.40;;;;;;;-0.96;100.00;100890.06;103471;1288;60322;-76
2023/01/29 00:14:47;;;;;;;23.00;8.20;;;;;;;-0.95;100.00;100888.07;103548;1285;60402;-79
2023/01/29 00:17:13;;;;;;;24.30;8.30;;;;;;;-0.96;100.00;100888.88;103457;1285;60386;-76
2023/01/29 00:19:38;;;;;;;21.80;7.30;;;;;;;-1.00;100.00;100892.10;103424;1285;60327;-76
2023/01/29 00:22:04;;;;;;;25.90;7.70;;;;;;;-1.02;100.00;100889.87;103277;1285;192118;-77
2023/01/29 00:24:30;;;;;;;25.70;8.50;;;;;;;-1.03;100.00;100890.33;103735;1282;60337;-77
2023/01/29 00:26:55;;;;;;;23.70;8.00;;;;;;;-1.03;100.00;100889.12;103743;1288;60328;-79
2023/01/29 00:29:21;;;;;;;25.20;7.10;;;;;;;-1.00;100.00;100891.41;103526;1282;70084;-77
2023/01/29 00:31:46;;;;;;;20.20;7.60;;;;;;;-1.01;100.00;100894.13;103729;1286;61527;-75
2023/01/29 00:34:12;;;;;;;24.90;8.00;;;;;;;-1.02;100.00;100897.12;103381;1290;60389;-76
2023/01/29 00:36:37;;;;;;;20.00;7.50;;;;;;;-1.03;100.00;100898.27;103599;1288;60415;-76
2023/01/29 00:39:09;;;;;;;22.30;7.90;;;;;;;-1.03;100.00;100895.99;103450;1283;60408;-76
2023/01/29 00:49:50;;;;;;;25.30;8.20;;;;;;;-1.04;100.00;100904.23;103620;1287;74232;-77
2023/01/29 00:52:25;;;;;;;24.80;7.70;;;;;;;-1.05;100.00;100902.10;103630;1282;60325;-77
2023/01/29 00:54:52;;;;;;;19.30;7.50;;;;;;;-1.05;100.00;100905.36;103586;1283;72886;-77
2023/01/29 00:57:18;;;;;;;18.60;6.40;;;;;;;-1.05;100.00;100901.86;103261;1285;61600;-77
2023/01/29 00:59:43;;;;;;;26.30;7.70;;;;;;;-1.04;100.00;100907.25;103581;1287;60475;-78
2023/01/29 01:04:54;;;;;;;24.70;7.60;;;;;;;-1.05;100.00;100905.00;103784;1285;74112;-77
2023/01/29 01:07:19;;;;;;;22.40;7.80;;;;;;;-1.08;100.00;100904.00;103663;1282;60393;-77
2023/01/29 01:12:30;;;;;;;24.30;8.60;;;;;;;-1.08;100.00;100893.39;103555;1285;60405;-77
2023/01/29 01:14:55;;;;;;;23.00;7.70;;;;;;;-1.07;100.00;100895.55;103705;1286;60790;-77
2023/01/29 01:17:21;;;;;;;26.70;7.40;;;;;;;-1.09;100.00;100888.58;103593;1285;60385;-77
2023/01/29 01:19:47;;;;;;;24.80;7.80;;;;;;;-1.13;100.00;100891.17;103537;1282;60758;-77
2023/01/29 01:22:12;;;;;;;22.70;8.00;;;;;;;-1.14;100.00;100895.38;103515;1282;60477;-77
2023/01/29 01:24:38;;;;;;;21.90;7.60;;;;;;;-1.16;100.00;100900.09;103860;1282;73848;-77
2023/01/29 01:27:03;;;;;;;20.60;7.30;;;;;;;-1.18;100.00;100900.36;103966;1288;60456;-77
2023/01/29 01:29:29;;;;;;;25.70;7.40;;;;;;;-1.17;100.00;100903.20;103461;1282;60325;-77
2023/01/29 01:31:55;;;;;;;23.20;7.50;;;;;;;-1.17;100.00;100903.23;103486;1282;60549;-77
2023/01/29 01:37:51;;;;;;;23.50;8.50;;;;;;;-1.15;100.00;100896.52;103497;1283;600015;-77
2023/01/29 01:43:52;;;;;;;27.10;7.90;;;;;;;-1.16;100.00;100895.10;103054;1289;601112;-78
2023/01/29 01:46:18;;;;;;;22.60;7.30;;;;;;;-1.16;100.00;100895.79;103177;1293;60284;-76
2023/01/29 01:52:17;;;;;;;26.30;7.70;;;;;;;-1.15;100.00;100897.86;103247;1286;600883;-77
2023/01/29 01:54:43;;;;;;;27.50;7.70;;;;;;;-1.19;100.00;100894.72;103291;1291;63446;-78
2023/01/29 01:57:15;;;;;;;20.20;7.70;;;;;;;-1.21;100.00;100894.86;103023;1296;60505;-77
2023/01/29 01:59:47;;;;;;;22.80;8.10;;;;;;;-1.23;100.00;100896.66;103313;1287;73840;-77
2023/01/29 02:10:37;;;;;;;29.00;8.30;;;;;;;-1.23;100.00;100895.14;106889;1285;59137;-78
2023/01/29 02:13:05;;;;;;;20.10;7.00;;;;;;;-1.24;100.00;100888.70;106888;1285;72040;-78
2023/01/29 02:15:30;;;;;;;26.60;7.60;;;;;;;-1.22;100.00;100887.23;106890;1284;74403;-78
2023/01/29 02:17:56;;;;;;;24.30;8.00;;;;;;;-1.22;100.00;100888.32;106863;1284;58190;-78
2023/01/29 02:20:25;;;;;;;22.90;7.40;;;;;;;-1.24;100.00;100885.39;106861;1284;58043;-78
2023/01/29 02:22:58;;;;;;;27.40;7.80;;;;;;;-1.25;100.00;100886.20;106905;1285;60115;-78
2023/01/29 02:25:57;;;;;;;26.30;8.00;;;;;;;-1.21;100.00;100883.98;106886;1284;72957;-78
2023/01/29 02:28:25;;;;;;;22.00;7.80;;;;;;;-1.25;100.00;100882.30;106878;1284;74431;-78
2023/01/29 02:31:08;;;;;;;23.20;7.80;;;;;;;-1.27;100.00;100879.01;106897;1285;72499;-78
2023/01/29 02:33:45;;;;;;;24.70;8.60;;;;;;;-1.28;100.00;100879.35;106933;1285;62702;-76
2023/01/29 02:36:46;;;;;;;22.50;7.80;;;;;;;-1.28;100.00;100881.71;106930;1284;60524;-77
2023/01/29 02:39:20;;;;;;;24.10;7.80;;;;;;;-1.29;100.00;100881.73;106250;1291;72881;-78
2023/01/29 02:41:58;;;;;;;23.70;7.20;;;;;;;-1.30;100.00;100883.78;106264;1291;74789;-78
2023/01/29 02:44:41;;;;;;;24.70;7.20;;;;;;;-1.28;100.00;100882.39;106252;1291;73405;-78
2023/01/29 02:47:20;;;;;;;21.60;7.80;;;;;;;-1.28;100.00;100876.43;106041;1294;62807;-78
2023/01/29 02:49:53;;;;;;;23.40;7.80;;;;;;;-1.28;100.00;100877.31;106221;1292;61125;-78
2023/01/29 02:52:50;;;;;;;15.20;5.80;;;;;;;-1.29;100.00;100880.11;106252;1291;72931;-78
2023/01/29 02:55:23;;;;;;;24.80;8.00;;;;;;;-1.28;100.00;100882.52;105573;1299;74472;-78
2023/01/29 02:57:54;;;;;;;28.10;8.30;;;;;;;-1.30;100.00;100879.72;105563;1300;72417;-78
2023/01/29 03:00:25;;;;;;;25.80;8.60;;;;;;;-1.32;100.00;100878.98;105377;1299;61654;-78
2023/01/29 03:03:11;;;;;;;26.90;8.90;;;;;;;-1.31;100.00;100876.61;105433;1300;59631;-79
2023/01/29 03:05:37;;;;;;;23.90;8.10;;;;;;;-1.32;100.00;100874.87;105566;1300;73851;-78
2023/01/29 03:08:09;;;;;;;26.10;7.90;;;;;;;-1.32;100.00;100875.39;105599;1300;58361;-78
2023/01/29 03:10:38;;;;;;;22.10;7.50;;;;;;;-1.34;100.00;100874.35;105556;1299;72805;-78
2023/01/29 03:13:40;;;;;;;27.90;9.00;;;;;;;-1.32;100.00;100872.74;105536;1299;62728;-78
2023/01/29 03:16:18;;;;;;;26.70;8.90;;;;;;;-1.30;100.00;100877.44;105219;1299;60040;-78
2023/01/29 03:18:49;;;;;;;33.80;10.40;;;;;;;-1.28;100.00;100881.42;105602;1299;73775;-79
2023/01/29 03:32:37;;;;;;;30.70;8.90;;;;;;;-1.26;100.00;100880.35;105926;1293;72196;-78
2023/01/29 03:35:06;;;;;;;24.30;8.50;;;;;;;-1.26;100.00;100883.10;106052;1293;58172;-79
2023/01/29 03:37:34;;;;;;;28.60;8.30;;;;;;;-1.23;100.00;100884.73;106041;1292;73490;-78
2023/01/29 03:40:05;;;;;;;39.20;12.80;;;;;;;-1.22;100.00;100880.48;106038;1292;62630;-78
2023/01/29 03:43:00;;;;;;;31.20;10.40;;;;;;;-1.22;100.00;100879.57;106036;1294;60839;-78
2023/01/29 03:45:35;;;;;;;29.70;9.10;;;;;;;-1.19;100.00;100881.98;105646;1299;73931;-79
2023/01/29 03:48:15;;;;;;;21.70;8.10;;;;;;;-1.20;100.00;100881.52;105657;1299;74134;-78
2023/01/29 03:51:20;;;;;;;28.30;8.30;;;;;;;-1.18;100.00;100881.36;105632;1299;73412;-78
2023/01/29 03:53:52;;;;;;;19.70;8.00;;;;;;;-1.17;100.00;100875.96;105854;1292;62711;-78
2023/01/29 03:56:43;;;;;;;24.70;8.40;;;;;;;-1.18;100.00;100879.01;106164;1292;61017;-78
2023/01/29 03:59:34;;;;;;;32.90;11.60;;;;;;;-1.15;100.00;100876.04;106053;1292;71774;-77
2023/01/29 04:02:05;;;;;;;73.90;24.30;;;;;;;-1.15;100.00;100873.38;106112;1292;73398;-78
2023/01/29 04:04:36;;;;;;;37.10;13.60;;;;;;;-1.11;100.00;100874.77;105901;1292;73494;-79
2023/01/29 04:07:22;;;;;;;36.60;13.00;;;;;;;-1.12;100.00;100875.38;106062;1292;63282;-78
2023/01/29 04:09:59;;;;;;;65.50;22.10;;;;;;;-1.11;100.00;100878.10;106106;1292;60540;-78
2023/01/29 08:13:39;;;;;;;22.10;7.80;;;;;;;1.62;100.00;100901.41;103838;1283;613165;-80
2023/01/29 08:16:05;;;;;;;20.60;8.40;;;;;;;1.88;100.00;100898.68;103808;1287;119071;-83
2023/01/29 08:18:30;;;;;;;27.00;9.20;;;;;;;1.79;100.00;100899.90;104001;1291;60447;-85
2023/01/29 08:23:57;;;;;;;22.60;9.20;;;;;;;2.22;100.00;100891.29;103030;1294;600146;-80
2023/01/29 08:26:22;;;;;;;23.80;9.60;;;;;;;3.09;100.00;100888.73;103182;1295;60363;-79
2023/01/29 08:28:48;;;;;;;24.40;9.70;;;;;;;3.70;100.00;100884.30;103193;1289;60567;-79
2023/01/29 08:31:15;;;;;;;23.40;8.00;;;;;;;3.56;100.00;100889.98;103177;1289;60418;-81
2023/01/29 08:33:40;;;;;;;28.40;9.20;;;;;;;3.40;100.00;100883.92;103101;1290;74009;-79
2023/01/29 08:36:07;;;;;;;21.10;7.80;;;;;;;3.33;100.00;100884.48;103090;1295;60376;-79
2023/01/29 08:38:33;;;;;;;24.60;9.30;;;;;;;3.11;100.00;100884.30;102795;1292;242887;-78
2023/01/29 08:40:58;;;;;;;20.60;8.30;;;;;;;2.85;100.00;100879.70;103125;1292;60924;-79
2023/01/29 08:43:24;;;;;;;23.30;8.70;;;;;;;2.91;100.00;100879.66;103358;1289;60357;-79
2023/01/29 08:45:49;;;;;;;19.70;8.30;;;;;;;3.07;100.00;100877.83;103440;1292;60385;-78
2023/01/29 08:48:15;;;;;;;20.60;8.70;;;;;;;3.23;100.00;100873.13;103127;1294;60395;-78
2023/01/29 08:50:40;;;;;;;23.50;9.00;;;;;;;3.26;100.00;100868.27;103283;1289;60387;-78
2023/01/29 08:53:08;;;;;;;20.00;8.50;;;;;;;3.23;100.00;100871.50;103076;1295;60459;-78
2023/01/29 08:55:38;;;;;;;20.50;8.40;;;;;;;3.19;100.00;100880.84;103343;1292;60325;-78
2023/01/29 08:58:06;;;;;;;22.20;8.70;;;;;;;2.95;100.00;100879.13;103462;1295;60575;-78
2023/01/29 09:00:33;;;;;;;23.60;9.70;;;;;;;2.83;100.00;100881.56;103448;1291;60714;-77
2023/01/29 09:02:59;;;;;;;24.50;9.30;;;;;;;2.78;100.00;100880.11;103367;1291;74275;-77
2023/01/29 09:05:29;;;;;;;31.20;9.60;;;;;;;2.93;100.00;100880.14;103089;1286;72566;-77
2023/01/29 09:07:56;;;;;;;27.40;11.10;;;;;;;2.72;100.00;100878.14;103377;1289;73969;-77
2023/01/29 09:10:22;;;;;;;28.30;11.70;;;;;;;2.61;100.00;100880.70;103376;1289;61453;-76
2023/01/29 09:13:04;;;;;;;22.10;8.60;;;;;;;2.43;100.00;100877.72;102671;1291;600983;-78
2023/01/29 09:15:30;;;;;;;21.80;8.80;;;;;;;2.16;100.00;100879.77;102934;1294;61909;-77
2023/01/29 09:17:55;;;;;;;23.70;8.80;;;;;;;1.93;100.00;100877.58;102982;1291;60396;-77
2023/01/29 09:20:21;;;;;;;26.60;9.50;;;;;;;1.98;100.00;100871.55;102927;1291;60442;-77
2023/01/29 09:22:46;;;;;;;31.30;11.90;;;;;;;1.92;100.00;100868.77;102932;1292;60402;-76
2023/01/29 09:25:12;;;;;;;37.60;13.40;;;;;;;1.95;100.00;100867.98;102492;1298;60463;-77
2023/01/29 09:27:38;;;;;;;30.10;10.40;;;;;;;2.01;100.00;100869.19;102856;1291;238633;-77
2023/01/29 09:30:04;;;;;;;24.60;8.30;;;;;;;2.07;100.00;100872.13;103383;1288;60356;-77
2023/01/29 09:32:32;;;;;;;20.00;7.90;;;;;;;2.06;100.00;100872.37;103071;1296;60386;-76
2023/01/29 09:34:58;;;;;;;24.00;9.00;;;;;;;1.95;100.00;100874.71;103092;1288;60475;-76
2023/01/29 09:37:24;;;;;;;28.10;10.20;;;;;;;1.82;100.00;100872.68;103268;1294;60422;-76
2023/01/29 09:39:49;;;;;;;36.10;13.00;;;;;;;1.75;100.00;100876.59;103412;1289;60256;-76
2023/01/29 09:42:25;;;;;;;28.90;10.50;;;;;;;1.57;100.00;100882.86;103513;1288;60433;-76
2023/01/29 09:45:16;;;;;;;29.80;11.80;;;;;;;1.44;100.00;100882.27;103291;1287;73404;-77
2023/01/29 09:47:43;;;;;;;37.30;13.00;;;;;;;1.53;100.00;100880.61;102863;1295;74899;-77
2023/01/29 09:50:21;;;;;;;24.80;9.80;;;;;;;1.63;100.00;100880.77;102687;1295;63034;-77
2023/01/29 09:53:22;;;;;;;23.40;9.30;;;;;;;1.63;100.00;100881.10;102937;1295;61216;-79
2023/01/29 09:55:58;;;;;;;29.40;11.00;;;;;;;1.52;100.00;100879.34;102048;1306;73531;-76
2023/01/29 09:58:32;;;;;;;29.50;10.40;;;;;;;1.59;100.00;100880.58;102120;1301;74745;-77
2023/01/29 10:01:07;;;;;;;27.40;10.30;;;;;;;1.67;100.00;100880.88;102187;1305;74081;-77
2023/01/29 10:04:05;;;;;;;27.60;10.30;;;;;;;1.72;100.00;100875.73;102174;1302;61111;-76
2023/01/29 10:07:22;;;;;;;38.80;12.10;;;;;;;1.72;100.00;100874.48;102031;1301;60406;-76
2023/01/29 10:10:08;;;;;;;47.60;14.20;;;;;;;1.55;100.00;100873.20;101631;1306;74420;-77
2023/01/29 10:12:52;;;;;;;31.00;11.30;;;;;;;1.59;100.00;100868.09;101791;1309;73863;-77
2023/01/29 10:15:32;;;;;;;30.60;11.70;;;;;;;1.80;100.00;100863.67;101752;1306;73003;-77
2023/01/29 10:18:35;;;;;;;28.50;10.80;;;;;;;1.90;100.00;100860.70;101622;1306;62330;-77
2023/01/29 10:21:19;;;;;;;33.20;10.80;;;;;;;1.91;100.00;100864.56;101663;1305;60548;-77
2023/01/29 10:23:53;;;;;;;31.20;11.10;;;;;;;1.89;100.00;100863.61;101435;1309;74121;-78
2023/01/29 10:26:26;;;;;;;25.50;9.50;;;;;;;1.77;100.00;100860.52;101902;1301;75226;-77
2023/01/29 10:28:55;;;;;;;30.10;10.70;;;;;;;1.59;100.00;100862.28;102263;1299;73728;-77
2023/01/29 10:31:31;;;;;;;29.90;11.30;;;;;;;1.53;100.00;100857.20;102047;1299;62327;-77
2023/01/29 10:34:03;;;;;;;35.60;11.60;;;;;;;1.55;100.00;100856.03;102469;1294;62074;-78
2023/01/29 10:36:43;;;;;;;35.00;11.70;;;;;;;1.50;100.00;100850.16;102678;1294;72467;-78
2023/01/29 10:39:23;;;;;;;36.20;11.20;;;;;;;1.43;100.00;100855.09;102398;1292;74927;-78
2023/01/29 10:45:44;;;;;;;28.40;10.20;;;;;;;1.36;100.00;100848.55;103044;1289;601763;-78
2023/01/29 10:48:35;;;;;;;38.50;11.80;;;;;;;1.24;100.00;100845.84;103117;1290;62363;-78
2023/01/29 10:51:08;;;;;;;32.80;11.20;;;;;;;1.26;100.00;100844.31;103076;1292;60700;-78
2023/01/29 10:53:36;;;;;;;37.40;12.50;;;;;;;1.40;100.00;100840.85;102953;1290;72436;-78
2023/01/29 10:56:17;;;;;;;33.00;11.70;;;;;;;1.48;100.00;100844.59;103259;1288;74099;-78
2023/01/29 10:58:55;;;;;;;30.90;10.20;;;;;;;1.44;100.00;100840.15;103088;1286;211506;-78
2023/01/29 11:01:21;;;;;;;40.00;11.60;;;;;;;1.34;100.00;100841.34;103345;1289;61519;-78
2023/01/29 11:03:57;;;;;;;33.50;11.40;;;;;;;1.34;100.00;100840.00;103543;1286;60407;-78
2023/01/29 11:06:28;;;;;;;33.50;11.70;;;;;;;1.27;100.00;100837.88;103675;1289;72958;-78
2023/01/29 11:12:29;;;;;;;35.70;12.00;;;;;;;1.08;100.00;100837.95;102903;1292;600871;-78
2023/01/29 11:15:11;;;;;;;35.80;13.30;;;;;;;0.97;100.00;100835.40;102966;1291;62851;-79
2023/01/29 11:17:37;;;;;;;44.20;13.60;;;;;;;0.82;100.00;100839.11;103064;1290;60513;-78
2023/01/29 11:20:24;;;;;;;32.70;12.00;;;;;;;0.74;100.00;100837.80;103124;1294;60390;-78
2023/01/29 11:22:54;;;;;;;40.20;12.70;;;;;;;0.60;100.00;100839.58;102936;1294;74000;-78
2023/01/29 11:25:21;;;;;;;39.10;13.50;;;;;;;0.54;100.00;100839.30;102968;1288;224529;-78
2023/01/29 11:27:54;;;;;;;38.00;12.70;;;;;;;0.45;100.00;100836.77;103316;1288;62211;-78
2023/01/29 11:30:23;;;;;;;;;;;;;;;0.42;100.00;100833.61;103333;1288;60402;-78
2023/01/29 11:33:17;;;;;;;46.20;13.20;;;;;;;0.45;100.00;100830.85;103369;1288;74067;-78
2023/01/29 11:35:42;;;;;;;41.30;12.50;;;;;;;0.48;100.00;100833.83;103282;1290;74304;-78
2023/01/29 11:38:24;;;;;;;37.70;12.50;;;;;;;0.44;100.00;100837.95;103464;1291;60379;-78
2023/01/29 11:40:50;;;;;;;43.60;13.10;;;;;;;0.35;100.00;100837.14;103353;1288;62484;-78
2023/01/29 11:43:22;;;;;;;40.70;14.50;;;;;;;0.36;100.00;100834.98;103374;1291;60324;-78
2023/01/29 11:49:32;;;;;;;40.30;13.40;;;;;;;0.36;100.00;100846.55;102929;1290;600471;-78
2023/01/29 11:52:01;;;;;;;42.90;14.40;;;;;;;0.28;100.00;100844.48;103175;1293;62785;-78
2023/01/29 11:54:33;;;;;;;45.60;13.70;;;;;;;0.27;100.00;100845.94;103046;1291;61557;-78
2023/01/29 11:56:59;;;;;;;48.00;15.90;;;;;;;0.26;100.00;100842.67;106172;1289;73725;-78
2023/01/29 11:59:29;;;;;;;44.70;13.50;;;;;;;0.30;100.00;100843.73;106334;1289;73257;-79
2023/01/29 12:02:01;;;;;;;49.20;16.80;;;;;;;0.35;100.00;100841.52;106167;1288;225355;-79
2023/01/29 12:04:27;;;;;;;58.00;15.10;;;;;;;0.42;100.00;100835.92;106564;1287;61042;-80
2023/01/29 12:06:53;;;;;;;48.10;15.20;;;;;;;0.47;100.00;100834.92;106547;1287;58065;-80
2023/01/29 12:09:26;;;;;;;47.60;15.20;;;;;;;0.45;100.00;100835.75;106584;1287;58156;-79
2023/01/29 12:11:52;;;;;;;44.10;14.60;;;;;;;0.45;100.00;100834.90;106550;1287;74135;-79
2023/01/29 12:14:27;;;;;;;46.90;14.70;;;;;;;0.36;100.00;100837.08;106470;1288;58157;-79
2023/01/29 12:17:00;;;;;;;47.80;14.70;;;;;;;0.37;100.00;100835.66;106541;1287;61443;-79
2023/01/29 12:19:28;;;;;;;;;;;;;;;0.41;100.00;100841.19;106560;1287;59981;-80
2023/01/29 12:22:01;;;;;;;48.70;14.80;;;;;;;0.40;100.00;100843.37;106581;1287;73851;-79
2023/01/29 12:24:30;;;;;;;;;;;;;;;0.42;100.00;100842.33;106646;1286;73889;-80
2023/01/29 12:27:30;;;;;;;44.40;14.80;;;;;;;0.48;100.00;100843.73;106631;1287;72432;-80
2023/01/29 12:30:33;;;;;;;44.30;14.80;;;;;;;0.53;100.00;100842.01;106546;1287;61837;-80
2023/01/29 12:33:28;;;;;;;42.80;14.70;;;;;;;0.58;100.00;100846.61;106600;1287;60971;-79
2023/01/29 12:36:20;;;;;;;42.60;15.00;;;;;;;0.62;100.00;100845.88;106622;1286;73977;-79
2023/01/29 12:38:46;;;;;;;49.00;13.90;;;;;;;0.63;100.00;100842.91;106346;1286;71617;-80
2023/01/29 12:41:44;;;;;;;55.90;14.70;;;;;;;0.59;100.00;100843.89;106349;1286;58300;-80
2023/01/29 12:44:16;;;;;;;51.90;14.60;;;;;;;0.54;100.00;100848.66;106124;1292;62067;-79
2023/01/29 12:46:49;;;;;;;46.10;14.50;;;;;;;0.61;100.00;100852.56;106000;1294;59951;-79
2023/01/29 12:49:21;;;;;;;51.60;16.20;;;;;;;0.65;100.00;100848.12;106101;1292;72809;-80
2023/01/29 12:52:06;;;;;;;48.40;14.50;;;;;;;0.63;100.00;100847.83;105969;1294;74450;-79
2023/01/29 12:54:48;;;;;;;42.50;14.60;;;;;;;0.68;100.00;100851.16;105958;1294;73271;-79
2023/01/29 12:57:41;;;;;;;46.70;13.70;;;;;;;0.60;100.00;100854.39;105529;1298;61904;-80
2023/01/29 13:00:15;;;;;;;44.50;14.80;;;;;;;0.56;100.00;100856.05;105773;1295;60152;-80
2023/01/29 13:03:12;;;;;;;50.50;14.90;;;;;;;0.56;100.00;100856.58;105982;1294;72581;-79
2023/01/29 13:05:45;;;;;;;85.80;25.70;;;;;;;0.52;100.00;100859.13;106023;1294;74313;-79
2023/01/29 13:08:16;;;;;;;65.50;20.80;;;;;;;0.44;100.00;100858.34;105976;1294;73486;-79
2023/01/29 13:10:47;;;;;;;81.70;22.30;;;;;;;0.39;100.00;100861.71;105964;1294;59924;-79
2023/01/29 13:13:18;;;;;;;58.30;18.30;;;;;;;0.37;100.00;100864.13;105736;1295;60099;-80
2023/01/29 13:15:45;;;;;;;58.80;18.40;;;;;;;0.41;100.00;100869.64;106008;1294;73875;-79
2023/01/29 17:37:52;;;;;;;48.40;16.40;;;;;;;-1.66;100.00;100979.80;103655;1283;613697;-81
2023/01/29 17:40:35;;;;;;;48.30;16.10;;;;;;;-1.50;100.00;100978.86;103626;1282;281512;-81
2023/01/29 17:43:01;;;;;;;45.90;16.10;;;;;;;-1.47;100.00;100975.75;103758;1281;60611;-81
2023/01/29 17:45:27;;;;;;;45.50;16.60;;;;;;;-1.46;100.00;100980.02;103430;1286;60380;-81
2023/01/29 17:47:53;;;;;;;42.00;15.30;;;;;;;-1.47;100.00;100984.11;103414;1288;60433;-81
2023/01/29 17:53:22;;;;;;;51.00;16.40;;;;;;;-1.46;100.00;100980.54;102849;1295;601872;-81
2023/01/29 17:55:48;;;;;;;54.00;17.60;;;;;;;-1.44;100.00;100980.53;103171;1294;62378;-82
2023/01/29 17:58:24;;;;;;;51.20;17.10;;;;;;;-1.43;100.00;100979.30;103157;1292;60374;-79
2023/01/29 18:04:14;;;;;;;44.40;15.00;;;;;;;-1.40;100.00;100976.48;103024;1290;600259;-81
2023/01/29 18:06:42;;;;;;;54.30;17.00;;;;;;;-1.44;100.00;100978.21;103368;1293;60429;-81
2023/01/29 18:09:12;;;;;;;53.20;18.30;;;;;;;-1.41;100.00;100976.61;103448;1295;61338;-81
2023/01/29 18:12:15;;;;;;;49.40;16.70;;;;;;;-1.40;100.00;100978.30;103154;1286;613197;-80
2023/01/29 18:14:40;;;;;;;48.50;16.50;;;;;;;-1.46;100.00;100976.88;103528;1288;60425;-79
2023/01/29 18:20:38;;;;;;;49.20;17.40;;;;;;;-1.49;100.00;100976.98;102869;1289;600682;-80
2023/01/29 18:23:40;;;;;;;45.30;16.10;;;;;;;-1.49;100.00;100970.02;102896;1293;614017;-81
2023/01/29 18:26:09;;;;;;;46.20;15.80;;;;;;;-1.52;100.00;100967.08;103039;1293;60422;-79
2023/01/29 18:28:35;;;;;;;44.60;14.60;;;;;;;-1.53;100.00;100966.89;103150;1292;60448;-79
2023/01/29 18:34:21;;;;;;;45.40;15.30;;;;;;;-1.52;100.00;100969.76;103008;1289;600862;-80
2023/01/29 18:36:47;;;;;;;41.50;14.40;;;;;;;-1.54;100.00;100975.08;103225;1289;63735;-80
2023/01/29 18:39:14;;;;;;;38.30;14.30;;;;;;;-1.57;100.00;100970.01;103261;1288;60431;-80
2023/01/29 18:41:39;;;;;;;43.20;15.10;;;;;;;-1.57;100.00;100971.95;103512;1289;60431;-80
2023/01/29 18:44:05;;;;;;;41.30;15.00;;;;;;;-1.57;100.00;100977.21;103234;1289;60335;-80
2023/01/29 18:46:33;;;;;;;46.60;15.50;;;;;;;-1.62;100.00;100976.11;103429;1289;60358;-80
2023/01/29 18:49:01;;;;;;;45.70;14.70;;;;;;;-1.63;100.00;100974.29;103218;1286;231983;-80
2023/01/29 18:51:26;;;;;;;43.90;14.60;;;;;;;-1.64;100.00;100975.45;103640;1286;60637;-80
2023/01/29 18:53:52;;;;;;;46.60;15.60;;;;;;;-1.64;100.00;100971.13;103286;1295;60408;-80
2023/01/29 18:56:18;;;;;;;47.40;15.70;;;;;;;-1.67;100.00;100964.52;103650;1286;60392;-80
2023/01/29 18:58:46;;;;;;;38.90;13.60;;;;;;;-1.67;100.00;100959.44;106606;1286;59293;-81
2023/01/29 19:01:12;;;;;;;40.30;13.70;;;;;;;-1.70;100.00;100958.75;106438;1286;58928;-80
2023/01/29 19:03:43;;;;;;;44.90;14.70;;;;;;;-1.69;100.00;100963.79;106595;1286;58046;-81
2023/01/29 19:06:11;;;;;;;43.00;14.70;;;;;;;-1.70;100.00;100960.34;106842;1285;74068;-81
2023/01/29 19:08:41;;;;;;;43.40;14.90;;;;;;;-1.72;100.00;100957.38;106597;1286;73439;-81
2023/01/29 19:11:07;;;;;;;41.80;13.90;;;;;;;-1.72;100.00;100960.36;106743;1286;72396;-81
2023/01/29 19:13:35;;;;;;;39.70;14.00;;;;;;;-1.70;100.00;100963.45;106706;1285;58150;-81
2023/01/29 19:16:01;;;;;;;41.80;13.30;;;;;;;-1.67;100.00;100964.57;106474;1286;60081;-81
2023/01/29 19:18:27;;;;;;;33.80;12.40;;;;;;;-1.64;100.00;100965.45;106772;1286;58187;-81
2023/01/29 19:20:53;;;;;;;38.40;13.40;;;;;;;-1.63;100.00;100963.23;106727;1286;58204;-81
2023/01/29 19:23:23;;;;;;;40.00;13.80;;;;;;;-1.64;100.00;100959.66;106833;1285;58106;-81
2023/01/29 19:25:49;;;;;;;37.60;13.50;;;;;;;-1.60;100.00;100965.56;106804;1285;62581;-81
2023/01/29 19:28:15;;;;;;;33.80;11.30;;;;;;;-1.58;100.00;100965.13;106702;1286;58017;-81
2023/01/29 19:30:40;;;;;;;35.30;13.50;;;;;;;-1.56;100.00;100968.73;106499;1285;58109;-81
2023/01/29 19:33:06;;;;;;;33.80;12.70;;;;;;;-1.55;100.00;100971.13;106717;1286;58111;-81
2023/01/29 19:35:32;;;;;;;33.70;12.70;;;;;;;-1.53;100.00;100971.78;106871;1285;58183;-81
2023/01/29 19:38:00;;;;;;;34.90;12.30;;;;;;;-1.51;100.00;100977.29;106409;1289;58527;-81
2023/01/29 19:40:26;;;;;;;34.80;13.30;;;;;;;-1.51;100.00;100982.34;106183;1292;73982;-81
2023/01/29 19:42:55;;;;;;;38.80;13.40;;;;;;;-1.48;100.00;100985.73;106174;1291;58254;-81
2023/01/29 19:45:24;;;;;;;33.20;12.20;;;;;;;-1.48;100.00;100980.81;106210;1291;72212;-81
2023/01/29 19:47:54;;;;;;;31.40;12.00;;;;;;;-1.46;100.00;100987.05;106341;1289;61061;-81
2023/01/29 19:50:49;;;;;;;31.50;12.20;;;;;;;-1.45;100.00;100985.33;106256;1289;61093;-82
2023/01/29 19:53:37;;;;;;;35.00;12.50;;;;;;;-1.44;100.00;100990.88;105753;1297;72985;-81
2023/01/29 19:56:14;;;;;;;35.50;13.50;;;;;;;-1.41;100.00;100994.64;105771;1297;73291;-81
2023/01/29 19:58:40;;;;;;;36.10;13.70;;;;;;;-1.40;100.00;100989.52;105461;1300;73590;-81
2023/01/29 20:01:15;;;;;;;36.10;12.80;;;;;;;-1.41;100.00;100988.13;105118;1301;58272;-81
2023/01/29 20:03:41;;;;;;;33.40;12.40;;;;;;;-1.40;100.00;100992.25;105408;1300;60986;-81
2023/01/29 20:06:07;;;;;;;33.10;12.60;;;;;;;-1.40;100.00;100994.61;105420;1300;58246;-81
2023/01/29 20:08:34;;;;;;;34.10;12.50;;;;;;;-1.39;100.00;100996.17;105159;1303;58378;-81
2023/01/29 20:11:00;;;;;;;32.20;11.80;;;;;;;-1.39;100.00;101000.50;105015;1305;72537;-81
2023/01/29 20:13:49;;;;;;;32.10;12.60;;;;;;;-1.36;100.00;101001.60;105104;1306;59001;-81
2023/01/29 20:16:16;;;;;;;35.40;14.00;;;;;;;-1.34;100.00;100995.62;105084;1306;58891;-81
2023/01/29 20:18:41;;;;;;;37.70;13.50;;;;;;;-1.32;100.00;100993.48;105399;1300;74286;-81
2023/01/29 20:21:10;;;;;;;35.90;13.70;;;;;;;-1.31;100.00;100994.08;105432;1300;58486;-82
2023/01/29 20:23:38;;;;;;;38.40;14.00;;;;;;;-1.32;100.00;100998.62;105335;1300;72689;-81
2023/01/29 20:26:12;;;;;;;33.90;12.60;;;;;;;-1.35;100.00;101001.23;105754;1296;61766;-81
2023/01/29 20:28:38;;;;;;;34.90;13.50;;;;;;;-1.33;100.00;101005.38;105583;1296;60135;-82
2023/01/29 20:31:08;;;;;;;33.10;12.80;;;;;;;-1.31;100.00;101004.27;106166;1292;58660;-82
2023/01/29 20:33:34;;;;;;;33.60;12.10;;;;;;;-1.31;100.00;101003.86;106169;1292;73480;-81
2023/01/29 20:36:03;;;;;;;34.70;12.80;;;;;;;-1.28;100.00;101005.02;106169;1291;73813;-81
2023/01/29 20:38:34;;;;;;;39.30;14.70;;;;;;;-1.26;100.00;101007.75;106245;1291;62854;-81
2023/01/29 20:41:05;;;;;;;40.60;14.40;;;;;;;-1.26;100.00;101005.59;106085;1292;58294;-81
2023/01/29 20:43:37;;;;;;;35.60;13.10;;;;;;;-1.24;100.00;101008.77;105963;1294;73803;-81
2023/01/29 20:46:03;;;;;;;34.30;12.40;;;;;;;-1.26;100.00;101006.85;105988;1292;74300;-81
2023/01/29 20:48:30;;;;;;;37.90;12.80;;;;;;;-1.28;100.00;101007.10;106159;1289;70785;-81
2023/01/29 20:51:01;;;;;;;35.50;13.30;;;;;;;-1.31;100.00;101006.58;106204;1289;63251;-81
2023/01/29 20:53:27;;;;;;;34.70;13.20;;;;;;;-1.36;100.00;101004.13;106406;1289;60153;-81
2023/01/29 20:55:56;;;;;;;34.70;12.60;;;;;;;-1.39;100.00;101006.84;106301;1289;58117;-82
2023/01/29 20:58:21;;;;;;;32.20;12.10;;;;;;;-1.37;100.00;101008.27;106523;1288;74831;-81
2023/01/29 21:00:50;;;;;;;36.90;13.50;;;;;;;-1.38;100.00;101011.33;106389;1287;58280;-81